createdAt,value
2018-09-14T00:01:44.531Z,18.38
2018-09-14T00:04:11.686Z,18.45
2018-09-14T00:06:38.854Z,18.31
2018-09-14T00:09:08.221Z,18.18
2018-09-14T00:11:35.622Z,18.10
2018-09-14T00:14:02.756Z,18.02
2018-09-14T00:16:29.919Z,17.38
2018-09-14T00:18:57.072Z,17.89
2018-09-14T00:21:24.255Z,17.86
2018-09-14T00:23:52.308Z,17.86
2018-09-14T00:26:19.503Z,17.85
2018-09-14T00:28:46.646Z,17.86
2018-09-14T00:31:13.818Z,17.84
2018-09-14T00:33:41.012Z,17.91
2018-09-14T00:36:08.207Z,17.94
2018-09-14T00:38:35.492Z,17.98
2018-09-14T00:41:02.683Z,17.94
2018-09-14T00:43:29.863Z,17.97
2018-09-14T00:45:57.005Z,17.88
2018-09-14T00:48:24.236Z,17.84
2018-09-14T00:50:51.460Z,17.82
2018-09-14T00:53:18.613Z,17.71
2018-09-14T00:55:45.885Z,17.70
2018-09-14T00:58:13.114Z,17.71
2018-09-14T01:00:40.321Z,17.69
2018-09-14T01:03:07.514Z,17.66
2018-09-14T01:05:34.694Z,17.61
2018-09-14T01:08:01.821Z,17.65
2018-09-14T01:10:28.995Z,17.67
2018-09-14T01:12:56.304Z,17.67
2018-09-14T01:15:23.464Z,17.67
2018-09-14T01:17:50.602Z,17.63
2018-09-14T01:20:17.871Z,17.64
2018-09-14T01:22:44.953Z,17.67
2018-09-14T01:25:12.195Z,17.71
2018-09-14T01:27:39.343Z,17.86
2018-09-14T01:30:06.538Z,18.02
2018-09-14T01:32:33.755Z,17.96
2018-09-14T01:35:00.999Z,17.80
2018-09-14T01:37:28.243Z,17.70
2018-09-14T01:39:55.490Z,17.65
2018-09-14T01:42:23.719Z,17.74
2018-09-14T01:44:51.311Z,17.90
2018-09-14T01:47:18.599Z,17.86
2018-09-14T01:49:45.805Z,17.93
2018-09-14T01:52:12.953Z,17.99
2018-09-14T01:54:40.154Z,18.08
2018-09-14T01:57:07.414Z,18.17
2018-09-14T01:59:34.624Z,18.05
2018-09-14T02:02:01.891Z,18.10
2018-09-14T02:04:29.246Z,18.20
2018-09-14T02:06:56.962Z,18.22
2018-09-14T02:09:24.175Z,18.33
2018-09-14T02:11:51.388Z,18.36
2018-09-14T02:14:18.837Z,18.29
2018-09-14T02:16:46.816Z,18.27
2018-09-14T02:19:14.221Z,18.24
2018-09-14T02:21:41.414Z,18.28
2018-09-14T02:24:08.590Z,18.21
2018-09-14T02:26:35.857Z,18.05
2018-09-14T02:29:03.018Z,17.93
2018-09-14T02:31:30.229Z,17.86
2018-09-14T02:33:57.422Z,17.78
2018-09-14T02:36:24.613Z,17.80
2018-09-14T02:38:51.773Z,17.86
2018-09-14T02:41:18.946Z,17.74
2018-09-14T02:43:46.322Z,17.71
2018-09-14T02:46:13.568Z,17.84
2018-09-14T02:48:40.891Z,17.73
2018-09-14T02:51:08.046Z,17.60
2018-09-14T02:53:35.311Z,17.53
2018-09-14T02:56:02.589Z,17.45
2018-09-14T02:58:29.889Z,17.44
2018-09-14T03:00:57.141Z,17.61
2018-09-14T03:03:24.358Z,17.77
2018-09-14T03:05:51.498Z,17.84
2018-09-14T03:08:18.721Z,17.91
2018-09-14T03:10:45.865Z,18.01
2018-09-14T03:13:13.249Z,17.88
2018-09-14T03:15:40.705Z,17.80
2018-09-14T03:18:07.918Z,17.75
2018-09-14T03:20:35.071Z,17.84
2018-09-14T03:23:02.244Z,17.88
2018-09-14T03:25:29.414Z,17.72
2018-09-14T03:27:56.635Z,17.75
2018-09-14T03:30:23.813Z,17.82
2018-09-14T03:32:50.975Z,17.85
2018-09-14T03:35:18.110Z,17.85
2018-09-14T03:37:45.334Z,17.93
2018-09-14T03:40:12.490Z,17.99
2018-09-14T03:42:39.681Z,17.98
2018-09-14T03:45:06.922Z,17.77
2018-09-14T03:47:34.455Z,17.83
2018-09-14T03:50:01.635Z,17.72
2018-09-14T03:52:28.842Z,17.73
2018-09-14T03:54:55.992Z,17.78
2018-09-14T03:57:24.128Z,17.86
2018-09-14T03:59:51.273Z,17.79
2018-09-14T04:02:18.473Z,17.77
2018-09-14T04:04:45.878Z,17.72
2018-09-14T04:07:13.067Z,17.67
2018-09-14T04:09:40.210Z,17.74
2018-09-14T04:12:07.411Z,17.62
2018-09-14T04:14:34.667Z,17.48
2018-09-14T04:17:02.025Z,17.40
2018-09-14T04:19:29.304Z,17.41
2018-09-14T04:21:56.515Z,17.48
2018-09-14T04:24:23.660Z,17.55
2018-09-14T04:26:50.927Z,17.70
2018-09-14T04:29:18.077Z,17.73
2018-09-14T04:31:45.318Z,17.75
2018-09-14T04:34:12.578Z,17.55
2018-09-14T04:36:40.042Z,17.80
2018-09-14T04:39:08.371Z,17.90
2018-09-14T04:41:35.558Z,17.97
2018-09-14T04:44:02.681Z,17.79
2018-09-14T04:46:29.870Z,17.97
2018-09-14T04:48:57.006Z,17.96
2018-09-14T04:51:24.471Z,17.99
2018-09-14T04:53:51.549Z,17.98
2018-09-14T04:56:18.750Z,17.97
2018-09-14T04:58:45.985Z,17.92
2018-09-14T05:01:13.170Z,17.92
2018-09-14T05:03:40.296Z,17.92
2018-09-14T05:06:07.414Z,17.88
2018-09-14T05:08:34.728Z,17.89
2018-09-14T05:11:01.926Z,17.94
2018-09-14T05:13:29.098Z,17.97
2018-09-14T05:15:56.378Z,17.99
2018-09-14T05:18:25.006Z,18.04
2018-09-14T05:20:52.744Z,18.07
2018-09-14T05:23:19.975Z,18.13
2018-09-14T05:25:47.075Z,18.19
2018-09-14T05:28:14.241Z,17.98
2018-09-14T05:30:41.454Z,17.83
2018-09-14T05:33:08.772Z,17.72
2018-09-14T05:35:37.204Z,17.84
2018-09-14T05:38:04.359Z,17.90
2018-09-14T05:40:31.838Z,17.92
2018-09-14T05:42:59.091Z,18.02
2018-09-14T05:45:26.265Z,18.09
2018-09-14T05:47:53.549Z,18.11
2018-09-14T05:50:20.713Z,18.15
2018-09-14T05:52:47.879Z,18.13
2018-09-14T05:55:15.042Z,18.17
2018-09-14T05:57:43.329Z,18.20
2018-09-14T06:00:11.219Z,18.23
2018-09-14T06:02:40.775Z,18.34
2018-09-14T06:05:08.155Z,18.33
2018-09-14T06:07:35.651Z,18.25
2018-09-14T06:10:03.507Z,18.26
2018-09-14T06:12:30.719Z,18.26
2018-09-14T06:14:57.905Z,18.24
2018-09-14T06:17:25.117Z,18.27
2018-09-14T06:19:52.386Z,18.26
2018-09-14T06:22:19.564Z,18.30
2018-09-14T06:24:46.840Z,18.29
2018-09-14T06:27:14.018Z,18.25
2018-09-14T06:29:41.212Z,18.24
2018-09-14T06:32:08.433Z,18.24
2018-09-14T06:34:36.042Z,18.31
2018-09-14T06:37:03.313Z,18.36
2018-09-14T06:39:30.523Z,18.34
2018-09-14T06:41:57.675Z,18.37
2018-09-14T06:44:24.906Z,18.36
2018-09-14T06:46:52.114Z,18.40
2018-09-14T06:49:19.345Z,18.48
2018-09-14T06:51:46.513Z,18.55
2018-09-14T06:54:14.669Z,18.59
2018-09-14T06:56:42.047Z,18.54
2018-09-14T06:59:09.258Z,18.67
2018-09-14T07:01:36.581Z,18.77
2018-09-14T07:04:03.929Z,18.91
2018-09-14T07:06:31.188Z,18.99
2018-09-14T07:08:58.518Z,19.10
2018-09-14T07:11:25.762Z,19.13
2018-09-14T07:13:53.015Z,19.27
2018-09-14T07:16:20.230Z,19.43
2018-09-14T07:18:47.506Z,19.47
2018-09-14T07:21:14.762Z,19.32
2018-09-14T07:23:42.011Z,19.34
2018-09-14T07:26:09.246Z,19.21
2018-09-14T07:28:36.531Z,19.26
2018-09-14T07:31:03.721Z,19.01
2018-09-14T07:33:30.919Z,18.65
2018-09-14T07:35:58.151Z,18.46
2018-09-14T07:38:25.374Z,18.33
2018-09-14T07:40:52.609Z,18.30
2018-09-14T07:43:19.777Z,18.29
2018-09-14T07:45:46.974Z,18.21
2018-09-14T07:48:14.152Z,18.32
2018-09-14T07:50:41.322Z,18.46
2018-09-14T07:53:08.551Z,18.41
2018-09-14T07:55:35.790Z,18.51
2018-09-14T07:58:03.241Z,18.38
2018-09-14T08:00:30.452Z,18.42
2018-09-14T08:02:57.616Z,18.51
2018-09-14T08:05:24.870Z,18.70
2018-09-14T08:07:52.078Z,18.88
2018-09-14T08:10:19.294Z,19.00
2018-09-14T08:12:46.576Z,19.00
2018-09-14T08:15:13.790Z,19.00
2018-09-14T08:17:41.036Z,19.01
2018-09-14T08:20:08.283Z,18.99
2018-09-14T08:22:35.750Z,19.12
2018-09-14T08:25:02.994Z,19.22
2018-09-14T08:27:30.250Z,19.33
2018-09-14T08:29:57.415Z,19.38
2018-09-14T08:32:24.915Z,19.40
2018-09-14T08:34:52.209Z,19.45
2018-09-14T08:37:19.394Z,19.53
2018-09-14T08:39:56.815Z,19.48
2018-09-14T08:42:23.976Z,19.48
2018-09-14T08:44:51.148Z,19.53
2018-09-14T08:47:18.395Z,19.39
2018-09-14T08:49:45.810Z,19.09
2018-09-14T08:52:12.961Z,19.06
2018-09-14T08:54:40.211Z,19.20
2018-09-14T08:57:07.529Z,19.31
2018-09-14T08:59:35.434Z,19.13
2018-09-14T09:02:02.693Z,19.20
2018-09-14T09:04:30.043Z,19.33
2018-09-14T09:06:57.405Z,19.29
2018-09-14T09:09:24.750Z,19.38
2018-09-14T09:11:51.954Z,19.45
2018-09-14T09:14:19.305Z,19.46
2018-09-14T09:16:46.709Z,19.54
2018-09-14T09:19:13.974Z,19.69
2018-09-14T09:21:41.978Z,19.47
2018-09-14T09:24:09.710Z,19.29
2018-09-14T09:26:36.895Z,19.32
2018-09-14T09:29:04.130Z,19.51
2018-09-14T09:31:32.325Z,19.64
2018-09-14T09:33:59.631Z,19.58
2018-09-14T09:36:26.842Z,19.60
2018-09-14T09:38:54.240Z,19.39
2018-09-14T09:41:21.597Z,19.64
2018-09-14T09:43:48.867Z,19.98
2018-09-14T09:46:16.041Z,20.20
2018-09-14T09:48:43.430Z,20.39
2018-09-14T09:51:11.732Z,20.60
2018-09-14T09:53:39.163Z,20.74
2018-09-14T09:56:06.345Z,20.77
2018-09-14T09:58:33.656Z,20.88
2018-09-14T10:01:06.711Z,20.91
2018-09-14T10:03:39.622Z,21.05
2018-09-14T10:06:12.777Z,20.81
2018-09-14T10:08:41.921Z,20.67
2018-09-14T10:11:09.306Z,20.40
2018-09-14T10:13:36.570Z,20.54
2018-09-14T10:16:03.795Z,20.82
2018-09-14T10:18:31.014Z,20.70
2018-09-14T10:20:58.240Z,20.84
2018-09-14T10:23:25.633Z,21.05
2018-09-14T10:25:53.082Z,21.10
2018-09-14T10:28:20.938Z,21.07
2018-09-14T10:30:48.213Z,20.82
2018-09-14T10:33:15.394Z,20.73
2018-09-14T10:35:44.416Z,20.78
2018-09-14T10:38:11.764Z,20.90
2018-09-14T10:40:39.103Z,20.54
2018-09-14T10:43:06.350Z,20.52
2018-09-14T10:45:33.598Z,20.53
2018-09-14T10:48:01.039Z,20.43
2018-09-14T10:50:28.357Z,20.52
2018-09-14T10:52:55.500Z,20.51
2018-09-14T10:55:23.414Z,16.69
2018-09-14T10:57:50.639Z,20.63
2018-09-14T11:00:17.849Z,20.76
2018-09-14T11:02:45.202Z,20.94
2018-09-14T11:05:12.505Z,21.03
2018-09-14T11:07:39.890Z,21.05
2018-09-14T11:10:07.273Z,21.21
2018-09-14T11:12:34.539Z,21.24
2018-09-14T11:15:02.291Z,21.41
2018-09-14T11:17:30.463Z,21.56
2018-09-14T11:19:57.642Z,21.72
2018-09-14T11:22:25.151Z,21.87
2018-09-14T11:24:52.442Z,21.92
2018-09-14T11:27:19.755Z,21.94
2018-09-14T11:29:47.166Z,22.03
2018-09-14T11:32:14.548Z,22.19
2018-09-14T11:34:41.799Z,22.60
2018-09-14T11:37:09.383Z,22.62
2018-09-14T11:39:37.217Z,22.75
2018-09-14T11:42:04.517Z,22.94
2018-09-14T11:44:31.877Z,23.07
2018-09-14T11:46:59.295Z,23.13
2018-09-14T11:49:27.179Z,23.35
2018-09-14T11:51:54.356Z,23.45
2018-09-14T11:54:21.675Z,23.70
2018-09-14T11:56:48.873Z,23.85
2018-09-14T11:59:16.366Z,23.96
2018-09-14T12:01:43.652Z,23.70
2018-09-14T12:04:11.033Z,23.42
2018-09-14T12:06:38.164Z,23.60
2018-09-14T12:09:07.763Z,23.75
2018-09-14T12:11:35.216Z,23.73
2018-09-14T12:14:05.074Z,23.92
2018-09-14T12:16:32.554Z,23.77
2018-09-14T12:18:59.919Z,23.79
2018-09-14T12:21:27.260Z,24.09
2018-09-14T12:23:54.586Z,24.28
2018-09-14T12:26:21.914Z,24.44
2018-09-14T12:28:49.258Z,24.61
2018-09-14T12:31:16.471Z,24.73
2018-09-14T12:33:43.635Z,25.05
2018-09-14T12:36:10.861Z,25.32
2018-09-14T12:38:38.138Z,25.55
2018-09-14T12:41:05.461Z,25.52
2018-09-14T12:43:32.675Z,25.61
2018-09-14T12:45:59.978Z,25.66
2018-09-14T12:48:27.521Z,25.89
2018-09-14T12:50:54.778Z,26.03
2018-09-14T12:53:22.031Z,26.16
2018-09-14T12:55:49.283Z,25.93
2018-09-14T12:58:16.467Z,25.84
2018-09-14T13:00:43.662Z,25.64
2018-09-14T13:03:10.932Z,25.36
2018-09-14T13:05:38.600Z,25.33
2018-09-14T13:08:05.879Z,25.01
2018-09-14T13:10:33.185Z,24.90
2018-09-14T13:13:00.602Z,24.97
2018-09-14T13:15:29.102Z,24.92
2018-09-14T13:17:56.268Z,24.99
2018-09-14T13:20:23.436Z,24.95
2018-09-14T13:22:51.512Z,24.89
2018-09-14T13:25:18.710Z,24.96
2018-09-14T13:27:45.947Z,25.07
2018-09-14T13:30:13.478Z,25.28
2018-09-14T13:32:42.732Z,25.51
2018-09-14T13:35:10.083Z,25.64
2018-09-14T13:37:37.291Z,25.32
2018-09-14T13:40:04.439Z,25.08
2018-09-14T13:42:31.814Z,24.98
2018-09-14T13:44:58.925Z,24.97
2018-09-14T13:47:26.169Z,24.99
2018-09-14T13:49:53.366Z,25.17
2018-09-14T13:52:20.566Z,25.14
2018-09-14T13:54:47.750Z,25.03
2018-09-14T13:57:15.076Z,25.03
2018-09-14T13:59:42.259Z,25.06
2018-09-14T14:02:09.512Z,24.98
2018-09-14T14:04:36.702Z,25.17
2018-09-14T14:07:03.946Z,25.16
2018-09-14T14:09:31.143Z,25.13
2018-09-14T14:11:58.347Z,25.16
2018-09-14T14:14:25.557Z,25.20
2018-09-14T14:16:53.128Z,24.93
2018-09-14T14:19:20.193Z,24.87
2018-09-14T14:21:47.392Z,24.48
2018-09-14T14:24:14.536Z,24.41
2018-09-14T14:26:41.738Z,24.61
2018-09-14T14:29:09.151Z,24.51
2018-09-14T14:31:36.406Z,24.62
2018-09-14T14:34:04.549Z,24.69
2018-09-14T14:36:31.756Z,24.77
2018-09-14T14:38:59.011Z,24.74
2018-09-14T14:41:26.316Z,24.82
2018-09-14T14:43:53.482Z,24.89
2018-09-14T14:46:20.680Z,24.96
2018-09-14T14:48:47.896Z,24.98
2018-09-14T14:51:15.172Z,24.92
2018-09-14T14:53:42.460Z,24.86
2018-09-14T14:56:09.680Z,24.67
2018-09-14T14:58:36.886Z,24.61
2018-09-14T15:01:04.149Z,24.64
2018-09-14T15:03:31.746Z,24.64
2018-09-14T15:05:59.111Z,24.61
2018-09-14T15:08:26.809Z,24.46
2018-09-14T15:10:53.968Z,24.36
2018-09-14T15:13:21.173Z,24.43
2018-09-14T15:15:48.430Z,24.50
2018-09-14T15:18:15.636Z,24.56
2018-09-14T15:20:43.191Z,24.63
2018-09-14T15:23:10.333Z,24.69
2018-09-14T15:25:37.617Z,24.48
2018-09-14T15:28:04.940Z,24.53
2018-09-14T15:30:32.110Z,24.53
2018-09-14T15:32:59.375Z,24.48
2018-09-14T15:35:26.577Z,24.38
2018-09-14T15:37:53.805Z,24.28
2018-09-14T15:40:21.223Z,24.34
2018-09-14T15:42:48.994Z,24.27
2018-09-14T15:45:16.191Z,24.13
2018-09-14T15:47:43.381Z,24.17
2018-09-14T15:50:10.544Z,24.26
2018-09-14T15:52:37.861Z,24.09
2018-09-14T15:55:05.010Z,24.16
2018-09-14T15:57:32.185Z,24.15
2018-09-14T15:59:59.300Z,24.11
2018-09-14T16:02:26.493Z,24.04
2018-09-14T16:04:53.695Z,24.04
2018-09-14T16:07:20.907Z,24.05
2018-09-14T16:09:48.098Z,23.96
2018-09-14T16:12:15.366Z,23.89
2018-09-14T16:14:43.171Z,23.81
2018-09-14T16:17:10.593Z,23.75
2018-09-14T16:19:37.784Z,23.70
2018-09-14T16:22:04.954Z,23.74
2018-09-14T16:24:32.167Z,23.73
2018-09-14T16:26:59.434Z,23.71
2018-09-14T16:29:26.643Z,23.62
2018-09-14T16:31:53.877Z,23.13
2018-09-14T16:34:21.046Z,23.50
2018-09-14T16:36:48.280Z,23.42
2018-09-14T16:39:15.478Z,23.37
2018-09-14T16:41:42.641Z,23.34
2018-09-14T16:44:10.261Z,23.19
2018-09-14T16:46:37.690Z,23.09
2018-09-14T16:49:05.039Z,23.08
2018-09-14T16:51:33.366Z,22.98
2018-09-14T16:54:00.877Z,22.97
2018-09-14T16:56:28.050Z,22.92
2018-09-14T16:58:55.793Z,22.86
2018-09-14T17:01:23.014Z,22.84
2018-09-14T17:03:50.181Z,22.88
2018-09-14T17:06:17.365Z,22.80
2018-09-14T17:08:44.545Z,22.79
2018-09-14T17:11:12.376Z,22.75
2018-09-14T17:13:39.742Z,22.76
2018-09-14T17:16:07.042Z,22.78
2018-09-14T17:18:34.191Z,22.88
2018-09-14T17:21:01.379Z,22.88
2018-09-14T17:23:28.553Z,22.89
2018-09-14T17:25:55.798Z,22.89
2018-09-14T17:28:23.045Z,22.74
2018-09-14T17:30:50.862Z,22.71
2018-09-14T17:33:18.170Z,22.38
2018-09-14T17:35:45.481Z,22.68
2018-09-14T17:38:12.773Z,22.70
2018-09-14T17:40:40.049Z,22.73
2018-09-14T17:43:07.202Z,22.68
2018-09-14T17:45:34.454Z,22.61
2018-09-14T17:48:01.630Z,22.66
2018-09-14T17:50:28.780Z,22.69
2018-09-14T17:52:56.010Z,22.69
2018-09-14T17:55:23.205Z,22.60
2018-09-14T17:57:50.355Z,22.55
2018-09-14T18:00:18.103Z,22.50
2018-09-14T18:02:45.451Z,22.43
2018-09-14T18:05:12.603Z,22.40
2018-09-14T18:07:40.092Z,22.28
2018-09-14T18:10:08.190Z,22.27
2018-09-14T18:12:35.724Z,22.23
2018-09-14T18:15:03.205Z,22.23
2018-09-14T18:17:30.448Z,22.27
2018-09-14T18:19:57.710Z,22.18
2018-09-14T18:22:24.991Z,22.22
2018-09-14T18:24:52.174Z,22.23
2018-09-14T18:27:19.914Z,22.21
2018-09-14T18:29:47.071Z,22.17
2018-09-14T18:32:14.344Z,22.12
2018-09-14T18:34:41.763Z,22.17
2018-09-14T18:37:09.341Z,22.19
2018-09-14T18:39:36.589Z,22.14
2018-09-14T18:42:05.037Z,22.03
2018-09-14T18:44:32.530Z,22.07
2018-09-14T18:47:00.090Z,22.05
2018-09-14T18:49:27.988Z,22.01
2018-09-14T18:51:55.272Z,21.87
2018-09-14T18:54:22.501Z,21.89
2018-09-14T18:56:49.842Z,21.91
2018-09-14T18:59:17.528Z,21.92
2018-09-14T19:01:45.851Z,21.92
2018-09-14T19:04:13.287Z,21.87
2018-09-14T19:06:40.672Z,21.81
2018-09-14T19:09:09.401Z,21.75
2018-09-14T19:11:37.074Z,21.76
2018-09-14T19:14:04.351Z,21.70
2018-09-14T19:16:31.884Z,21.65
2018-09-14T19:18:59.445Z,21.68
2018-09-14T19:21:26.706Z,21.74
2018-09-14T19:23:53.910Z,21.77
2018-09-14T19:26:21.364Z,21.79
2018-09-14T19:28:49.357Z,21.69
2018-09-14T19:31:17.006Z,21.66
2018-09-14T19:33:44.315Z,21.54
2018-09-14T19:36:11.767Z,21.46
2018-09-14T19:38:39.407Z,21.35
2018-09-14T19:41:06.921Z,21.55
2018-09-14T19:43:34.448Z,21.72
2018-09-14T19:46:01.699Z,21.88
2018-09-14T19:48:28.976Z,21.93
2018-09-14T19:50:56.470Z,22.02
2018-09-14T19:53:23.947Z,21.93
2018-09-14T19:55:51.450Z,21.86
2018-09-14T19:58:18.865Z,21.77
2018-09-14T20:00:46.496Z,21.74
2018-09-14T20:03:13.682Z,21.66
2018-09-14T20:05:40.989Z,21.52
2018-09-14T20:08:08.318Z,21.38
2018-09-14T20:10:35.626Z,21.25
2018-09-14T20:13:02.828Z,21.23
2018-09-14T20:15:30.211Z,21.22
2018-09-14T20:17:57.726Z,21.07
2018-09-14T20:20:24.891Z,20.97
2018-09-14T20:22:52.019Z,21.10
2018-09-14T20:25:19.223Z,21.07
2018-09-14T20:27:46.438Z,21.07
2018-09-14T20:30:13.697Z,21.18
2018-09-14T20:32:40.930Z,21.20
2018-09-14T20:35:08.178Z,21.09
2018-09-14T20:37:35.324Z,20.96
2018-09-14T20:40:03.030Z,20.92
2018-09-14T20:42:30.714Z,20.73
2018-09-14T20:44:57.902Z,20.47
2018-09-14T20:47:25.144Z,20.37
2018-09-14T20:49:52.301Z,20.46
2018-09-14T20:52:19.470Z,20.59
2018-09-14T20:54:46.686Z,20.64
2018-09-14T20:57:13.858Z,20.75
2018-09-14T20:59:41.234Z,20.97
2018-09-14T21:02:08.461Z,21.26
2018-09-14T21:04:35.617Z,21.46
2018-09-14T21:07:02.818Z,21.41
2018-09-14T21:09:30.144Z,21.35
2018-09-14T21:11:57.444Z,21.37
2018-09-14T21:14:24.681Z,21.50
2018-09-14T21:16:51.830Z,21.53
2018-09-14T21:19:19.078Z,21.44
2018-09-14T21:21:46.275Z,21.44
2018-09-14T21:24:13.902Z,21.55
2018-09-14T21:26:41.055Z,21.60
2018-09-14T21:29:08.261Z,21.57
2018-09-14T21:31:35.512Z,21.57
2018-09-14T21:34:02.781Z,21.45
2018-09-14T21:36:30.067Z,20.83
2018-09-14T21:38:57.271Z,21.26
2018-09-14T21:41:24.420Z,21.08
2018-09-14T21:43:51.650Z,21.14
2018-09-14T21:46:19.762Z,21.13
2018-09-14T21:48:46.980Z,21.06
2018-09-14T21:51:14.149Z,21.22
2018-09-14T21:53:41.331Z,21.41
2018-09-14T21:56:08.467Z,21.48
2018-09-14T21:58:35.797Z,21.06
2018-09-14T22:01:05.200Z,20.77
2018-09-14T22:03:32.513Z,20.58
2018-09-14T22:05:59.641Z,20.32
2018-09-14T22:08:26.807Z,20.20
2018-09-14T22:10:53.988Z,20.05
2018-09-14T22:13:21.226Z,19.90
2018-09-14T22:15:48.522Z,19.86
2018-09-14T22:18:15.809Z,19.85
2018-09-14T22:20:43.069Z,19.78
2018-09-14T22:23:10.356Z,19.78
2018-09-14T22:25:37.573Z,19.78
2018-09-14T22:28:04.726Z,19.66
2018-09-14T22:30:32.149Z,19.65
2018-09-14T22:32:59.421Z,19.66
2018-09-14T22:35:26.717Z,19.56
2018-09-14T22:37:53.780Z,19.49
2018-09-14T22:40:21.034Z,19.36
2018-09-14T22:42:48.216Z,19.27
2018-09-14T22:45:15.498Z,19.17
2018-09-14T22:47:42.681Z,19.08
2018-09-14T22:50:10.201Z,19.14
2018-09-14T22:52:37.358Z,18.97
2018-09-14T22:55:04.707Z,18.72
2018-09-14T22:57:31.870Z,18.67
2018-09-14T22:59:59.072Z,18.76
2018-09-14T23:02:26.244Z,18.86
2018-09-14T23:04:53.361Z,18.85
2018-09-14T23:07:20.553Z,18.78
2018-09-14T23:09:47.731Z,18.67
2018-09-14T23:12:14.905Z,18.56
2018-09-14T23:14:42.064Z,18.54
2018-09-14T23:17:09.417Z,18.55
2018-09-14T23:19:36.660Z,18.56
2018-09-14T23:22:03.822Z,18.50
2018-09-14T23:24:30.985Z,18.54
2018-09-14T23:26:58.212Z,18.50
2018-09-14T23:29:25.362Z,18.38
2018-09-14T23:31:52.525Z,18.41
2018-09-14T23:34:19.738Z,18.31
2018-09-14T23:36:46.870Z,18.38
2018-09-14T23:39:14.018Z,18.36
2018-09-14T23:41:41.165Z,18.34
2018-09-14T23:44:08.331Z,18.22
2018-09-14T23:46:35.581Z,18.12
2018-09-14T23:49:02.906Z,18.05
2018-09-14T23:51:30.055Z,18.08
2018-09-14T23:53:57.234Z,18.13
2018-09-14T23:56:24.505Z,18.19
2018-09-14T23:58:51.884Z,18.19
